Cascalho Rico, Brazil
Current Conditions -  °F | °C
As of 12:00 PM on Monday 24 Nov 2014 (Local Time) from SBUL Reporting Station
Broken Clouds Broken Clouds  
Wind Chill: 77°   Ceiling: 8000
Heat Index: 79°   Visibility: 6mi
Dew Point: 66°   Wind: 8mph
Humidity: 69%   Direction: 300°WNW
Pressure: 30.09"   Gusts: NA
Location:  18.58°S, 47.88°W
Report Text: SBUL 241400Z 30007KT 9999 FEW020 FEW025TCU BKN080 25/19 Q1019
Loading
Personal Weather Stations






























Interactive Weather Map New forecast layout! Learn more

10-Day Weather Forecast

Advertisements
Track Severe Weather on mobile